sensor_id;sensor_type;location;lat;lon;timestamp;P1;durP1;ratioP1;P2;durP2;ratioP2
9330;SDS011;4704;50.470;12.072;2023-03-11T00:01:10;0.47;;;0.45;;
9330;SDS011;4704;50.470;12.072;2023-03-11T00:03:38;0.40;;;0.40;;
9330;SDS011;4704;50.470;12.072;2023-03-11T00:06:06;0.50;;;0.30;;
9330;SDS011;4704;50.470;12.072;2023-03-11T00:08:33;0.40;;;0.40;;
9330;SDS011;4704;50.470;12.072;2023-03-11T00:11:01;0.32;;;0.30;;
9330;SDS011;4704;50.470;12.072;2023-03-11T00:13:29;0.38;;;0.38;;
9330;SDS011;4704;50.470;12.072;2023-03-11T00:15:58;0.45;;;0.40;;
9330;SDS011;4704;50.470;12.072;2023-03-11T00:18:28;0.43;;;0.30;;
9330;SDS011;4704;50.470;12.072;2023-03-11T00:20:56;0.40;;;0.40;;
9330;SDS011;4704;50.470;12.072;2023-03-11T00:23:24;0.50;;;0.40;;
9330;SDS011;4704;50.470;12.072;2023-03-11T00:25:53;0.30;;;0.30;;
9330;SDS011;4704;50.470;12.072;2023-03-11T00:28:21;0.55;;;0.55;;
9330;SDS011;4704;50.470;12.072;2023-03-11T00:30:50;0.70;;;0.40;;
9330;SDS011;4704;50.470;12.072;2023-03-11T00:33:18;0.43;;;0.40;;
9330;SDS011;4704;50.470;12.072;2023-03-11T00:35:48;0.38;;;0.38;;
9330;SDS011;4704;50.470;12.072;2023-03-11T00:38:16;0.40;;;0.38;;
9330;SDS011;4704;50.470;12.072;2023-03-11T00:40:45;0.50;;;0.50;;
9330;SDS011;4704;50.470;12.072;2023-03-11T00:43:13;0.50;;;0.50;;
9330;SDS011;4704;50.470;12.072;2023-03-11T00:45:41;0.47;;;0.47;;
9330;SDS011;4704;50.470;12.072;2023-03-11T00:48:10;0.63;;;0.50;;
9330;SDS011;4704;50.470;12.072;2023-03-11T00:50:38;0.30;;;0.30;;
9330;SDS011;4704;50.470;12.072;2023-03-11T00:53:08;0.40;;;0.40;;
9330;SDS011;4704;50.470;12.072;2023-03-11T00:55:36;0.40;;;0.40;;
9330;SDS011;4704;50.470;12.072;2023-03-11T00:58:05;0.50;;;0.50;;
9330;SDS011;4704;50.470;12.072;2023-03-11T01:00:32;0.40;;;0.40;;
9330;SDS011;4704;50.470;12.072;2023-03-11T01:03:00;0.50;;;0.50;;
9330;SDS011;4704;50.470;12.072;2023-03-11T01:05:29;0.68;;;0.68;;
9330;SDS011;4704;50.470;12.072;2023-03-11T01:07:57;0.40;;;0.40;;
9330;SDS011;4704;50.470;12.072;2023-03-11T01:10:27;0.40;;;0.40;;
9330;SDS011;4704;50.470;12.072;2023-03-11T01:12:54;0.60;;;0.60;;
9330;SDS011;4704;50.470;12.072;2023-03-11T01:15:23;0.50;;;0.50;;
9330;SDS011;4704;50.470;12.072;2023-03-11T01:17:51;0.52;;;0.52;;
9330;SDS011;4704;50.470;12.072;2023-03-11T01:20:19;0.50;;;0.50;;
9330;SDS011;4704;50.470;12.072;2023-03-11T01:22:47;0.50;;;0.50;;
9330;SDS011;4704;50.470;12.072;2023-03-11T01:25:15;0.50;;;0.50;;
9330;SDS011;4704;50.470;12.072;2023-03-11T01:27:45;0.50;;;0.50;;
9330;SDS011;4704;50.470;12.072;2023-03-11T01:30:13;0.70;;;0.70;;
9330;SDS011;4704;50.470;12.072;2023-03-11T01:32:41;0.55;;;0.55;;
9330;SDS011;4704;50.470;12.072;2023-03-11T01:35:10;0.40;;;0.40;;
9330;SDS011;4704;50.470;12.072;2023-03-11T01:37:38;0.70;;;0.60;;
9330;SDS011;4704;50.470;12.072;2023-03-11T01:40:06;0.65;;;0.65;;
9330;SDS011;4704;50.470;12.072;2023-03-11T01:42:35;0.43;;;0.43;;
9330;SDS011;4704;50.470;12.072;2023-03-11T01:45:08;0.60;;;0.60;;
9330;SDS011;4704;50.470;12.072;2023-03-11T01:47:43;0.50;;;0.50;;
9330;SDS011;4704;50.470;12.072;2023-03-11T01:50:11;0.50;;;0.50;;
9330;SDS011;4704;50.470;12.072;2023-03-11T01:52:39;0.30;;;0.30;;
9330;SDS011;4704;50.470;12.072;2023-03-11T01:55:07;0.55;;;0.43;;
9330;SDS011;4704;50.470;12.072;2023-03-11T01:57:36;0.60;;;0.60;;
9330;SDS011;4704;50.470;12.072;2023-03-11T02:00:08;0.50;;;0.50;;
9330;SDS011;4704;50.470;12.072;2023-03-11T02:02:39;0.60;;;0.60;;
9330;SDS011;4704;50.470;12.072;2023-03-11T02:05:07;0.40;;;0.40;;
9330;SDS011;4704;50.470;12.072;2023-03-11T02:07:36;0.60;;;0.50;;
9330;SDS011;4704;50.470;12.072;2023-03-11T02:10:05;0.50;;;0.50;;
9330;SDS011;4704;50.470;12.072;2023-03-11T02:12:33;0.60;;;0.60;;
9330;SDS011;4704;50.470;12.072;2023-03-11T02:15:02;0.60;;;0.40;;
9330;SDS011;4704;50.470;12.072;2023-03-11T02:17:32;0.68;;;0.60;;
9330;SDS011;4704;50.470;12.072;2023-03-11T02:22:43;0.50;;;0.50;;
9330;SDS011;4704;50.470;12.072;2023-03-11T02:25:13;0.85;;;0.60;;
9330;SDS011;4704;50.470;12.072;2023-03-11T02:27:45;0.50;;;0.50;;
9330;SDS011;4704;50.470;12.072;2023-03-11T02:30:13;0.65;;;0.65;;
9330;SDS011;4704;50.470;12.072;2023-03-11T02:32:42;0.55;;;0.55;;
9330;SDS011;4704;50.470;12.072;2023-03-11T02:35:12;0.50;;;0.50;;
9330;SDS011;4704;50.470;12.072;2023-03-11T02:37:43;0.60;;;0.60;;
9330;SDS011;4704;50.470;12.072;2023-03-11T02:42:59;0.93;;;0.50;;
9330;SDS011;4704;50.470;12.072;2023-03-11T02:45:28;0.60;;;0.60;;
9330;SDS011;4704;50.470;12.072;2023-03-11T02:47:57;0.50;;;0.50;;
9330;SDS011;4704;50.470;12.072;2023-03-11T02:50:25;1.05;;;0.52;;
9330;SDS011;4704;50.470;12.072;2023-03-11T02:52:54;0.60;;;0.60;;
9330;SDS011;4704;50.470;12.072;2023-03-11T02:55:22;0.50;;;0.50;;
9330;SDS011;4704;50.470;12.072;2023-03-11T02:57:49;0.50;;;0.50;;
9330;SDS011;4704;50.470;12.072;2023-03-11T03:00:19;0.52;;;0.52;;
9330;SDS011;4704;50.470;12.072;2023-03-11T03:02:47;0.63;;;0.63;;
9330;SDS011;4704;50.470;12.072;2023-03-11T03:05:17;0.60;;;0.60;;
9330;SDS011;4704;50.470;12.072;2023-03-11T03:07:46;0.55;;;0.52;;
9330;SDS011;4704;50.470;12.072;2023-03-11T03:10:14;0.52;;;0.52;;
9330;SDS011;4704;50.470;12.072;2023-03-11T03:12:42;0.43;;;0.43;;
9330;SDS011;4704;50.470;12.072;2023-03-11T03:15:10;0.60;;;0.60;;
9330;SDS011;4704;50.470;12.072;2023-03-11T03:17:41;0.50;;;0.50;;
9330;SDS011;4704;50.470;12.072;2023-03-11T03:20:10;0.60;;;0.60;;
9330;SDS011;4704;50.470;12.072;2023-03-11T03:22:39;0.50;;;0.50;;
9330;SDS011;4704;50.470;12.072;2023-03-11T03:25:07;0.68;;;0.68;;
9330;SDS011;4704;50.470;12.072;2023-03-11T03:27:35;0.50;;;0.50;;
9330;SDS011;4704;50.470;12.072;2023-03-11T03:30:03;0.60;;;0.60;;
9330;SDS011;4704;50.470;12.072;2023-03-11T03:32:31;0.93;;;0.45;;
9330;SDS011;4704;50.470;12.072;2023-03-11T03:35:01;0.50;;;0.50;;
9330;SDS011;4704;50.470;12.072;2023-03-11T03:37:31;0.50;;;0.50;;
9330;SDS011;4704;50.470;12.072;2023-03-11T03:39:59;0.63;;;0.63;;
9330;SDS011;4704;50.470;12.072;2023-03-11T03:42:31;0.50;;;0.50;;
9330;SDS011;4704;50.470;12.072;2023-03-11T03:44:59;0.40;;;0.40;;
9330;SDS011;4704;50.470;12.072;2023-03-11T03:47:27;0.50;;;0.50;;
9330;SDS011;4704;50.470;12.072;2023-03-11T03:49:54;0.40;;;0.40;;
9330;SDS011;4704;50.470;12.072;2023-03-11T03:52:25;0.70;;;0.70;;
9330;SDS011;4704;50.470;12.072;2023-03-11T03:54:53;0.57;;;0.52;;
9330;SDS011;4704;50.470;12.072;2023-03-11T03:57:20;0.47;;;0.47;;
9330;SDS011;4704;50.470;12.072;2023-03-11T03:59:48;0.47;;;0.40;;
9330;SDS011;4704;50.470;12.072;2023-03-11T04:02:16;0.45;;;0.45;;
9330;SDS011;4704;50.470;12.072;2023-03-11T04:04:44;0.30;;;0.30;;
9330;SDS011;4704;50.470;12.072;2023-03-11T04:07:11;0.50;;;0.50;;
9330;SDS011;4704;50.470;12.072;2023-03-11T04:09:41;0.30;;;0.30;;
9330;SDS011;4704;50.470;12.072;2023-03-11T04:12:10;0.30;;;0.30;;
9330;SDS011;4704;50.470;12.072;2023-03-11T04:14:39;0.40;;;0.40;;
9330;SDS011;4704;50.470;12.072;2023-03-11T04:17:07;0.75;;;0.40;;
9330;SDS011;4704;50.470;12.072;2023-03-11T04:19:35;0.32;;;0.32;;
9330;SDS011;4704;50.470;12.072;2023-03-11T04:22:03;0.50;;;0.50;;
9330;SDS011;4704;50.470;12.072;2023-03-11T04:24:31;0.40;;;0.40;;
9330;SDS011;4704;50.470;12.072;2023-03-11T04:27:00;0.50;;;0.43;;
9330;SDS011;4704;50.470;12.072;2023-03-11T04:29:28;0.50;;;0.50;;
9330;SDS011;4704;50.470;12.072;2023-03-11T04:31:56;0.40;;;0.40;;
9330;SDS011;4704;50.470;12.072;2023-03-11T04:34:23;0.73;;;0.40;;
9330;SDS011;4704;50.470;12.072;2023-03-11T04:36:51;0.40;;;0.40;;
9330;SDS011;4704;50.470;12.072;2023-03-11T04:39:19;0.40;;;0.40;;
9330;SDS011;4704;50.470;12.072;2023-03-11T04:41:46;0.40;;;0.40;;
9330;SDS011;4704;50.470;12.072;2023-03-11T04:44:16;0.40;;;0.40;;
9330;SDS011;4704;50.470;12.072;2023-03-11T04:46:43;0.40;;;0.40;;
9330;SDS011;4704;50.470;12.072;2023-03-11T04:49:11;0.40;;;0.40;;
9330;SDS011;4704;50.470;12.072;2023-03-11T04:51:40;0.20;;;0.20;;
9330;SDS011;4704;50.470;12.072;2023-03-11T04:54:08;0.43;;;0.43;;
9330;SDS011;4704;50.470;12.072;2023-03-11T04:56:36;0.30;;;0.30;;
9330;SDS011;4704;50.470;12.072;2023-03-11T04:59:04;0.40;;;0.40;;
9330;SDS011;4704;50.470;12.072;2023-03-11T05:01:33;0.30;;;0.30;;
9330;SDS011;4704;50.470;12.072;2023-03-11T05:04:00;0.32;;;0.32;;
9330;SDS011;4704;50.470;12.072;2023-03-11T05:06:28;0.50;;;0.40;;
9330;SDS011;4704;50.470;12.072;2023-03-11T05:08:55;0.50;;;0.40;;
9330;SDS011;4704;50.470;12.072;2023-03-11T05:11:24;0.43;;;0.40;;
9330;SDS011;4704;50.470;12.072;2023-03-11T05:13:51;0.43;;;0.40;;
9330;SDS011;4704;50.470;12.072;2023-03-11T05:16:19;0.40;;;0.40;;
9330;SDS011;4704;50.470;12.072;2023-03-11T05:18:48;0.40;;;0.40;;
9330;SDS011;4704;50.470;12.072;2023-03-11T05:21:15;0.47;;;0.47;;
9330;SDS011;4704;50.470;12.072;2023-03-11T05:23:43;0.30;;;0.30;;
9330;SDS011;4704;50.470;12.072;2023-03-11T05:26:10;0.40;;;0.40;;
9330;SDS011;4704;50.470;12.072;2023-03-11T05:28:38;0.50;;;0.50;;
9330;SDS011;4704;50.470;12.072;2023-03-11T05:31:06;0.32;;;0.32;;
9330;SDS011;4704;50.470;12.072;2023-03-11T05:33:34;0.50;;;0.40;;
9330;SDS011;4704;50.470;12.072;2023-03-11T05:36:07;0.50;;;0.50;;
9330;SDS011;4704;50.470;12.072;2023-03-11T05:38:35;0.50;;;0.50;;
9330;SDS011;4704;50.470;12.072;2023-03-11T05:41:02;0.32;;;0.32;;
9330;SDS011;4704;50.470;12.072;2023-03-11T05:43:30;0.50;;;0.50;;
9330;SDS011;4704;50.470;12.072;2023-03-11T05:45:58;0.40;;;0.40;;
9330;SDS011;4704;50.470;12.072;2023-03-11T05:48:25;0.70;;;0.50;;
9330;SDS011;4704;50.470;12.072;2023-03-11T05:50:52;0.50;;;0.50;;
9330;SDS011;4704;50.470;12.072;2023-03-11T05:53:21;0.35;;;0.35;;
9330;SDS011;4704;50.470;12.072;2023-03-11T05:55:54;0.35;;;0.35;;
9330;SDS011;4704;50.470;12.072;2023-03-11T05:58:22;0.57;;;0.40;;
9330;SDS011;4704;50.470;12.072;2023-03-11T06:00:49;0.30;;;0.30;;
9330;SDS011;4704;50.470;12.072;2023-03-11T06:03:17;0.30;;;0.30;;
9330;SDS011;4704;50.470;12.072;2023-03-11T06:05:44;0.40;;;0.40;;
9330;SDS011;4704;50.470;12.072;2023-03-11T06:08:12;0.40;;;0.40;;
9330;SDS011;4704;50.470;12.072;2023-03-11T06:10:41;0.45;;;0.45;;
9330;SDS011;4704;50.470;12.072;2023-03-11T06:13:09;0.65;;;0.50;;
9330;SDS011;4704;50.470;12.072;2023-03-11T06:15:36;1.50;;;0.70;;
9330;SDS011;4704;50.470;12.072;2023-03-11T06:18:04;0.80;;;0.70;;
9330;SDS011;4704;50.470;12.072;2023-03-11T06:20:31;1.85;;;0.57;;
9330;SDS011;4704;50.470;12.072;2023-03-11T06:22:59;0.90;;;0.70;;
9330;SDS011;4704;50.470;12.072;2023-03-11T06:25:26;1.25;;;0.82;;
9330;SDS011;4704;50.470;12.072;2023-03-11T06:27:55;1.45;;;0.85;;
9330;SDS011;4704;50.470;12.072;2023-03-11T06:30:23;1.27;;;0.80;;
9330;SDS011;4704;50.470;12.072;2023-03-11T06:32:50;1.05;;;0.70;;
9330;SDS011;4704;50.470;12.072;2023-03-11T06:35:19;1.02;;;0.90;;
9330;SDS011;4704;50.470;12.072;2023-03-11T06:37:47;1.02;;;0.93;;
9330;SDS011;4704;50.470;12.072;2023-03-11T06:40:14;1.80;;;1.00;;
9330;SDS011;4704;50.470;12.072;2023-03-11T06:42:43;2.72;;;0.80;;
9330;SDS011;4704;50.470;12.072;2023-03-11T06:45:13;1.27;;;1.00;;
9330;SDS011;4704;50.470;12.072;2023-03-11T06:47:40;1.85;;;1.00;;
9330;SDS011;4704;50.470;12.072;2023-03-11T06:50:08;3.63;;;1.77;;
9330;SDS011;4704;50.470;12.072;2023-03-11T06:52:35;2.15;;;1.65;;
9330;SDS011;4704;50.470;12.072;2023-03-11T06:55:03;1.60;;;1.50;;
9330;SDS011;4704;50.470;12.072;2023-03-11T06:57:31;3.03;;;2.08;;
9330;SDS011;4704;50.470;12.072;2023-03-11T06:59:59;3.13;;;1.88;;
9330;SDS011;4704;50.470;12.072;2023-03-11T07:02:31;2.85;;;1.85;;
9330;SDS011;4704;50.470;12.072;2023-03-11T07:04:59;2.20;;;1.70;;
9330;SDS011;4704;50.470;12.072;2023-03-11T07:07:26;2.30;;;1.60;;
9330;SDS011;4704;50.470;12.072;2023-03-11T07:09:54;4.60;;;1.80;;
9330;SDS011;4704;50.470;12.072;2023-03-11T07:12:21;4.80;;;2.05;;
9330;SDS011;4704;50.470;12.072;2023-03-11T07:14:52;2.60;;;1.90;;
9330;SDS011;4704;50.470;12.072;2023-03-11T07:17:20;3.38;;;1.63;;
9330;SDS011;4704;50.470;12.072;2023-03-11T07:19:49;2.33;;;1.52;;
9330;SDS011;4704;50.470;12.072;2023-03-11T07:22:16;4.43;;;1.50;;
9330;SDS011;4704;50.470;12.072;2023-03-11T07:24:44;2.55;;;1.70;;
9330;SDS011;4704;50.470;12.072;2023-03-11T07:27:12;3.13;;;1.50;;
9330;SDS011;4704;50.470;12.072;2023-03-11T07:29:39;2.25;;;1.48;;
9330;SDS011;4704;50.470;12.072;2023-03-11T07:32:07;2.20;;;1.52;;
9330;SDS011;4704;50.470;12.072;2023-03-11T07:34:34;2.25;;;1.42;;
9330;SDS011;4704;50.470;12.072;2023-03-11T07:37:03;1.85;;;1.38;;
9330;SDS011;4704;50.470;12.072;2023-03-11T07:39:31;2.00;;;1.48;;
9330;SDS011;4704;50.470;12.072;2023-03-11T07:41:58;1.98;;;1.40;;
9330;SDS011;4704;50.470;12.072;2023-03-11T07:44:26;2.70;;;1.52;;
9330;SDS011;4704;50.470;12.072;2023-03-11T07:46:54;1.75;;;1.40;;
9330;SDS011;4704;50.470;12.072;2023-03-11T07:49:21;1.88;;;1.30;;
9330;SDS011;4704;50.470;12.072;2023-03-11T07:51:48;2.47;;;1.20;;
9330;SDS011;4704;50.470;12.072;2023-03-11T07:54:17;1.35;;;1.25;;
9330;SDS011;4704;50.470;12.072;2023-03-11T07:56:45;1.50;;;1.13;;
9330;SDS011;4704;50.470;12.072;2023-03-11T07:59:12;1.73;;;1.00;;
9330;SDS011;4704;50.470;12.072;2023-03-11T08:01:40;1.48;;;1.20;;
9330;SDS011;4704;50.470;12.072;2023-03-11T08:04:11;1.45;;;1.15;;
9330;SDS011;4704;50.470;12.072;2023-03-11T08:06:40;4.30;;;2.38;;
9330;SDS011;4704;50.470;12.072;2023-03-11T08:09:08;6.47;;;3.42;;
9330;SDS011;4704;50.470;12.072;2023-03-11T08:11:38;5.63;;;3.10;;
9330;SDS011;4704;50.470;12.072;2023-03-11T08:14:06;5.10;;;3.25;;
9330;SDS011;4704;50.470;12.072;2023-03-11T08:16:33;5.68;;;3.20;;
9330;SDS011;4704;50.470;12.072;2023-03-11T08:19:00;8.00;;;4.28;;
9330;SDS011;4704;50.470;12.072;2023-03-11T08:21:28;7.28;;;5.32;;
9330;SDS011;4704;50.470;12.072;2023-03-11T08:23:56;6.97;;;4.68;;
9330;SDS011;4704;50.470;12.072;2023-03-11T08:26:24;7.18;;;4.22;;
9330;SDS011;4704;50.470;12.072;2023-03-11T08:28:54;5.68;;;4.65;;
9330;SDS011;4704;50.470;12.072;2023-03-11T08:31:22;4.80;;;3.72;;
9330;SDS011;4704;50.470;12.072;2023-03-11T08:33:51;5.15;;;4.22;;
9330;SDS011;4704;50.470;12.072;2023-03-11T08:36:19;5.70;;;3.92;;
9330;SDS011;4704;50.470;12.072;2023-03-11T08:38:47;5.85;;;4.00;;
9330;SDS011;4704;50.470;12.072;2023-03-11T08:41:14;5.82;;;3.67;;
9330;SDS011;4704;50.470;12.072;2023-03-11T08:43:42;5.18;;;3.80;;
9330;SDS011;4704;50.470;12.072;2023-03-11T08:46:12;4.57;;;3.38;;
9330;SDS011;4704;50.470;12.072;2023-03-11T08:48:40;5.93;;;3.58;;
9330;SDS011;4704;50.470;12.072;2023-03-11T08:51:08;5.75;;;3.45;;
9330;SDS011;4704;50.470;12.072;2023-03-11T08:53:36;4.80;;;3.47;;
9330;SDS011;4704;50.470;12.072;2023-03-11T08:56:04;4.50;;;3.30;;
9330;SDS011;4704;50.470;12.072;2023-03-11T08:58:31;4.70;;;3.33;;
9330;SDS011;4704;50.470;12.072;2023-03-11T09:01:01;4.47;;;2.85;;
9330;SDS011;4704;50.470;12.072;2023-03-11T09:03:31;4.80;;;3.05;;
9330;SDS011;4704;50.470;12.072;2023-03-11T09:06:00;4.68;;;3.03;;
9330;SDS011;4704;50.470;12.072;2023-03-11T09:08:28;3.45;;;2.72;;
9330;SDS011;4704;50.470;12.072;2023-03-11T09:10:55;4.88;;;3.00;;
9330;SDS011;4704;50.470;12.072;2023-03-11T09:13:23;4.15;;;2.80;;
9330;SDS011;4704;50.470;12.072;2023-03-11T09:15:52;4.68;;;3.05;;
9330;SDS011;4704;50.470;12.072;2023-03-11T09:18:21;4.10;;;2.90;;
9330;SDS011;4704;50.470;12.072;2023-03-11T09:20:49;4.55;;;2.97;;
9330;SDS011;4704;50.470;12.072;2023-03-11T09:23:22;3.55;;;2.53;;
9330;SDS011;4704;50.470;12.072;2023-03-11T09:25:50;3.15;;;2.63;;
9330;SDS011;4704;50.470;12.072;2023-03-11T09:28:17;3.85;;;2.40;;
9330;SDS011;4704;50.470;12.072;2023-03-11T09:30:44;4.43;;;2.67;;
9330;SDS011;4704;50.470;12.072;2023-03-11T09:33:12;2.42;;;2.08;;
9330;SDS011;4704;50.470;12.072;2023-03-11T09:35:39;4.03;;;2.97;;
9330;SDS011;4704;50.470;12.072;2023-03-11T09:38:08;11.65;;;9.77;;
9330;SDS011;4704;50.470;12.072;2023-03-11T09:40:41;9.20;;;7.90;;
9330;SDS011;4704;50.470;12.072;2023-03-11T09:43:14;9.45;;;7.90;;
9330;SDS011;4704;50.470;12.072;2023-03-11T09:45:46;8.85;;;7.07;;
9330;SDS011;4704;50.470;12.072;2023-03-11T09:48:18;7.78;;;6.97;;
9330;SDS011;4704;50.470;12.072;2023-03-11T09:50:47;7.50;;;6.75;;
9330;SDS011;4704;50.470;12.072;2023-03-11T09:53:30;7.82;;;6.50;;
9330;SDS011;4704;50.470;12.072;2023-03-11T09:56:03;8.82;;;6.38;;
9330;SDS011;4704;50.470;12.072;2023-03-11T09:58:34;7.32;;;6.13;;
9330;SDS011;4704;50.470;12.072;2023-03-11T10:01:03;7.90;;;6.45;;
9330;SDS011;4704;50.470;12.072;2023-03-11T10:03:35;8.95;;;7.10;;
9330;SDS011;4704;50.470;12.072;2023-03-11T10:06:10;8.32;;;7.50;;
9330;SDS011;4704;50.470;12.072;2023-03-11T10:08:40;8.48;;;7.50;;
9330;SDS011;4704;50.470;12.072;2023-03-11T10:11:17;7.38;;;6.53;;
9330;SDS011;4704;50.470;12.072;2023-03-11T10:13:48;6.88;;;6.07;;
9330;SDS011;4704;50.470;12.072;2023-03-11T10:16:19;7.95;;;6.50;;
9330;SDS011;4704;50.470;12.072;2023-03-11T10:18:51;7.97;;;6.20;;
9330;SDS011;4704;50.470;12.072;2023-03-11T10:21:24;9.27;;;6.18;;
9330;SDS011;4704;50.470;12.072;2023-03-11T10:23:59;6.63;;;5.95;;
9330;SDS011;4704;50.470;12.072;2023-03-11T10:26:31;6.97;;;6.15;;
9330;SDS011;4704;50.470;12.072;2023-03-11T10:29:02;7.85;;;5.65;;
9330;SDS011;4704;50.470;12.072;2023-03-11T10:31:35;6.55;;;5.05;;
9330;SDS011;4704;50.470;12.072;2023-03-11T10:34:05;6.97;;;4.90;;
9330;SDS011;4704;50.470;12.072;2023-03-11T10:36:38;6.32;;;5.45;;
9330;SDS011;4704;50.470;12.072;2023-03-11T10:39:09;5.03;;;4.47;;
9330;SDS011;4704;50.470;12.072;2023-03-11T10:41:39;6.53;;;4.93;;
9330;SDS011;4704;50.470;12.072;2023-03-11T10:44:09;5.28;;;4.35;;
9330;SDS011;4704;50.470;12.072;2023-03-11T10:46:39;5.43;;;4.25;;
9330;SDS011;4704;50.470;12.072;2023-03-11T10:49:08;5.00;;;4.50;;
9330;SDS011;4704;50.470;12.072;2023-03-11T10:51:39;5.63;;;4.07;;
9330;SDS011;4704;50.470;12.072;2023-03-11T10:54:10;5.93;;;4.00;;
9330;SDS011;4704;50.470;12.072;2023-03-11T10:56:48;4.75;;;4.00;;
9330;SDS011;4704;50.470;12.072;2023-03-11T10:59:21;5.20;;;3.88;;
9330;SDS011;4704;50.470;12.072;2023-03-11T11:01:52;5.78;;;4.45;;
9330;SDS011;4704;50.470;12.072;2023-03-11T11:04:28;4.32;;;3.90;;
9330;SDS011;4704;50.470;12.072;2023-03-11T11:06:56;4.82;;;3.47;;
9330;SDS011;4704;50.470;12.072;2023-03-11T11:09:26;3.85;;;3.45;;
9330;SDS011;4704;50.470;12.072;2023-03-11T11:12:05;3.45;;;3.10;;
9330;SDS011;4704;50.470;12.072;2023-03-11T11:14:43;3.80;;;3.40;;
9330;SDS011;4704;50.470;12.072;2023-03-11T11:17:15;5.55;;;3.30;;
9330;SDS011;4704;50.470;12.072;2023-03-11T11:19:43;3.92;;;3.30;;
9330;SDS011;4704;50.470;12.072;2023-03-11T11:22:10;4.40;;;3.47;;
9330;SDS011;4704;50.470;12.072;2023-03-11T11:24:43;3.40;;;3.08;;
9330;SDS011;4704;50.470;12.072;2023-03-11T11:27:14;3.20;;;2.90;;
9330;SDS011;4704;50.470;12.072;2023-03-11T11:29:42;4.90;;;3.00;;
9330;SDS011;4704;50.470;12.072;2023-03-11T11:32:17;3.35;;;3.05;;
9330;SDS011;4704;50.470;12.072;2023-03-11T11:34:56;3.65;;;2.97;;
9330;SDS011;4704;50.470;12.072;2023-03-11T11:37:24;2.90;;;2.58;;
9330;SDS011;4704;50.470;12.072;2023-03-11T11:39:58;3.33;;;2.80;;
9330;SDS011;4704;50.470;12.072;2023-03-11T11:42:33;2.95;;;2.55;;
9330;SDS011;4704;50.470;12.072;2023-03-11T11:45:02;2.95;;;2.75;;
9330;SDS011;4704;50.470;12.072;2023-03-11T11:47:32;2.60;;;2.40;;
9330;SDS011;4704;50.470;12.072;2023-03-11T11:50:00;3.30;;;2.60;;
9330;SDS011;4704;50.470;12.072;2023-03-11T11:52:30;2.95;;;2.65;;
9330;SDS011;4704;50.470;12.072;2023-03-11T11:55:03;3.30;;;2.30;;
9330;SDS011;4704;50.470;12.072;2023-03-11T11:57:31;2.70;;;2.50;;
9330;SDS011;4704;50.470;12.072;2023-03-11T11:59:58;2.63;;;2.35;;
9330;SDS011;4704;50.470;12.072;2023-03-11T12:02:39;2.40;;;2.20;;
9330;SDS011;4704;50.470;12.072;2023-03-11T12:05:09;2.67;;;2.35;;
9330;SDS011;4704;50.470;12.072;2023-03-11T12:07:45;2.53;;;2.15;;
9330;SDS011;4704;50.470;12.072;2023-03-11T12:10:19;2.30;;;2.10;;
9330;SDS011;4704;50.470;12.072;2023-03-11T12:12:49;2.53;;;2.33;;
9330;SDS011;4704;50.470;12.072;2023-03-11T12:15:20;3.00;;;2.20;;
9330;SDS011;4704;50.470;12.072;2023-03-11T12:17:51;2.10;;;1.90;;
9330;SDS011;4704;50.470;12.072;2023-03-11T12:20:23;1.70;;;1.60;;
9330;SDS011;4704;50.470;12.072;2023-03-11T12:25:53;2.10;;;1.83;;
9330;SDS011;4704;50.470;12.072;2023-03-11T12:28:30;1.70;;;1.60;;
9330;SDS011;4704;50.470;12.072;2023-03-11T12:31:03;1.90;;;1.80;;
9330;SDS011;4704;50.470;12.072;2023-03-11T12:33:34;1.65;;;1.55;;
9330;SDS011;4704;50.470;12.072;2023-03-11T12:36:03;1.70;;;1.60;;
9330;SDS011;4704;50.470;12.072;2023-03-11T12:38:31;1.80;;;1.52;;
9330;SDS011;4704;50.470;12.072;2023-03-11T12:41:02;1.90;;;1.80;;
9330;SDS011;4704;50.470;12.072;2023-03-11T12:46:16;2.00;;;1.70;;
9330;SDS011;4704;50.470;12.072;2023-03-11T12:48:44;1.42;;;1.33;;
9330;SDS011;4704;50.470;12.072;2023-03-11T12:54:19;1.70;;;1.60;;
9330;SDS011;4704;50.470;12.072;2023-03-11T12:56:50;2.40;;;1.73;;
9330;SDS011;4704;50.470;12.072;2023-03-11T12:59:29;1.58;;;1.48;;
9330;SDS011;4704;50.470;12.072;2023-03-11T13:02:10;1.65;;;1.38;;
9330;SDS011;4704;50.470;12.072;2023-03-11T13:04:47;1.60;;;1.50;;
9330;SDS011;4704;50.470;12.072;2023-03-11T13:07:27;1.88;;;1.20;;
9330;SDS011;4704;50.470;12.072;2023-03-11T13:10:00;1.73;;;1.33;;
9330;SDS011;4704;50.470;12.072;2023-03-11T13:12:39;1.58;;;1.48;;
9330;SDS011;4704;50.470;12.072;2023-03-11T13:18:01;1.85;;;1.27;;
9330;SDS011;4704;50.470;12.072;2023-03-11T13:23:32;1.70;;;1.40;;
9330;SDS011;4704;50.470;12.072;2023-03-11T13:26:12;1.23;;;1.10;;
9330;SDS011;4704;50.470;12.072;2023-03-11T13:28:53;1.33;;;1.20;;
9330;SDS011;4704;50.470;12.072;2023-03-11T13:31:30;1.13;;;1.00;;
9330;SDS011;4704;50.470;12.072;2023-03-11T13:34:02;1.20;;;1.10;;
9330;SDS011;4704;50.470;12.072;2023-03-11T13:36:38;1.40;;;1.13;;
9330;SDS011;4704;50.470;12.072;2023-03-11T13:39:16;1.85;;;1.30;;
9330;SDS011;4704;50.470;12.072;2023-03-11T13:41:46;1.30;;;1.20;;
9330;SDS011;4704;50.470;12.072;2023-03-11T13:44:19;1.52;;;1.25;;
9330;SDS011;4704;50.470;12.072;2023-03-11T13:46:48;1.35;;;1.25;;
9330;SDS011;4704;50.470;12.072;2023-03-11T13:49:22;1.10;;;1.00;;
9330;SDS011;4704;50.470;12.072;2023-03-11T13:51:50;1.42;;;1.00;;
9330;SDS011;4704;50.470;12.072;2023-03-11T13:54:25;1.10;;;0.98;;
9330;SDS011;4704;50.470;12.072;2023-03-11T13:56:55;1.13;;;1.02;;
9330;SDS011;4704;50.470;12.072;2023-03-11T13:59:25;1.25;;;1.00;;
9330;SDS011;4704;50.470;12.072;2023-03-11T14:01:55;1.27;;;1.05;;
9330;SDS011;4704;50.470;12.072;2023-03-11T14:04:24;1.35;;;1.02;;
9330;SDS011;4704;50.470;12.072;2023-03-11T14:06:52;1.17;;;0.80;;
9330;SDS011;4704;50.470;12.072;2023-03-11T14:09:21;1.20;;;1.10;;
9330;SDS011;4704;50.470;12.072;2023-03-11T14:11:48;1.10;;;0.90;;
9330;SDS011;4704;50.470;12.072;2023-03-11T14:14:26;1.02;;;0.93;;
9330;SDS011;4704;50.470;12.072;2023-03-11T14:16:55;1.35;;;1.25;;
9330;SDS011;4704;50.470;12.072;2023-03-11T14:19:25;1.10;;;1.00;;
9330;SDS011;4704;50.470;12.072;2023-03-11T14:21:53;1.35;;;1.00;;
9330;SDS011;4704;50.470;12.072;2023-03-11T14:24:21;1.13;;;1.00;;
9330;SDS011;4704;50.470;12.072;2023-03-11T14:26:51;1.10;;;1.00;;
9330;SDS011;4704;50.470;12.072;2023-03-11T14:29:20;0.93;;;0.80;;
9330;SDS011;4704;50.470;12.072;2023-03-11T14:31:51;1.35;;;1.00;;
9330;SDS011;4704;50.470;12.072;2023-03-11T14:34:19;0.77;;;0.77;;
9330;SDS011;4704;50.470;12.072;2023-03-11T14:36:47;0.80;;;0.80;;
9330;SDS011;4704;50.470;12.072;2023-03-11T14:39:25;0.85;;;0.85;;
9330;SDS011;4704;50.470;12.072;2023-03-11T14:41:53;1.25;;;0.90;;
9330;SDS011;4704;50.470;12.072;2023-03-11T14:44:22;1.83;;;1.00;;
9330;SDS011;4704;50.470;12.072;2023-03-11T14:46:51;1.10;;;1.00;;
9330;SDS011;4704;50.470;12.072;2023-03-11T14:49:20;0.70;;;0.70;;
9330;SDS011;4704;50.470;12.072;2023-03-11T14:51:54;1.10;;;1.00;;
9330;SDS011;4704;50.470;12.072;2023-03-11T14:54:23;0.98;;;0.98;;
9330;SDS011;4704;50.470;12.072;2023-03-11T14:56:55;0.90;;;0.90;;
9330;SDS011;4704;50.470;12.072;2023-03-11T14:59:24;0.95;;;0.90;;
9330;SDS011;4704;50.470;12.072;2023-03-11T15:01:54;1.17;;;1.08;;
9330;SDS011;4704;50.470;12.072;2023-03-11T15:04:25;0.80;;;0.80;;
9330;SDS011;4704;50.470;12.072;2023-03-11T15:06:56;0.90;;;0.90;;
9330;SDS011;4704;50.470;12.072;2023-03-11T15:09:25;0.80;;;0.80;;
9330;SDS011;4704;50.470;12.072;2023-03-11T15:11:53;0.90;;;0.75;;
9330;SDS011;4704;50.470;12.072;2023-03-11T15:14:23;0.90;;;0.80;;
9330;SDS011;4704;50.470;12.072;2023-03-11T15:16:51;0.95;;;0.80;;
9330;SDS011;4704;50.470;12.072;2023-03-11T15:19:29;1.00;;;0.80;;
9330;SDS011;4704;50.470;12.072;2023-03-11T15:22:04;0.98;;;0.90;;
9330;SDS011;4704;50.470;12.072;2023-03-11T15:24:32;1.40;;;0.90;;
9330;SDS011;4704;50.470;12.072;2023-03-11T15:27:00;1.23;;;0.88;;
9330;SDS011;4704;50.470;12.072;2023-03-11T15:29:29;0.70;;;0.70;;
9330;SDS011;4704;50.470;12.072;2023-03-11T15:31:57;0.80;;;0.68;;
9330;SDS011;4704;50.470;12.072;2023-03-11T15:34:29;1.00;;;0.90;;